Madison, Wisconsin
Current Conditions -  °F | °C
As of 11:53 PM on Monday 26 Jan 2015 (Local Time) from KMSN Reporting Station
Haze Haze  
Wind Chill: -4°   Ceiling: 1600
Heat Index: -4°   Visibility: 5mi
Dew Point: -6°   Wind: 0mph
Humidity: 88%   Direction: NA
Pressure: 29.9"   Gusts: NA
Location:  43.07°N, 89.39°W
Report Text: KMSN 270553Z AUTO 00000KT 5SM BR FEW007 OVC016 M04/M06 A2990 RMK AO2 SLP140 60000 I6000 T10441061 11039 21044 410331122 51010
Loading
Personal Weather Stations






























Interactive Weather Map New forecast layout! Learn more

10-Day Weather Forecast

Advertisements
Track Severe Weather on mobile